Back to Top

Language: 

My Weather Underground Personal Weather Station Historical Data with Graphs...

Delerius Weather Station Historical Data
Daily Summary for October 28, 2017 Units:  English    Metric   Both
« Previous Day
Next Day »
Daily Weekly Monthly Yearly Custom
  High: Low: Average:
Temperature: 58.3 °F 48.6 °F 54.2 °F
Dew Point: 54.2 °F 43.5 °F 50.5 °F
Humidity: 91 % 82 % 87 %
Wind Speed: 27.0 mph 5.0 mph 15 mph
Wind Gust: 39.0 mph - -
Wind:- - WNW
Pressure: 30.42 in 29.99 in -
Precipitation: 0.00 in    
Historical Graphs
 
 
Tabular Data for October 28, 2017
Time Temperature Dew Point Pressure Wind Wind Speed Wind Gust Humidity Rainfall Rate (Hourly) solar Conditions
00:04 48.7 °F 43.5 °F 30.42 in WNW 13.0 mph 21.0 mph 82 % 0.00 in 0 W/m2
00:09 48.7 °F 43.5 °F 30.41 in WNW 12.0 mph 19.0 mph 82 % 0.00 in 0 W/m2
00:14 48.7 °F 43.5 °F 30.41 in West 14.0 mph 22.0 mph 82 % 0.00 in 0 W/m2
00:19 48.7 °F 43.5 °F 30.41 in West 12.0 mph 22.0 mph 82 % 0.00 in 0 W/m2
00:24 48.6 °F 43.6 °F 30.41 in WNW 11.0 mph 16.0 mph 83 % 0.00 in 0 W/m2
00:29 48.7 °F 43.8 °F 30.40 in WNW 14.0 mph 21.0 mph 83 % 0.00 in 0 W/m2
00:35 48.7 °F 43.8 °F 30.41 in WNW 14.0 mph 24.0 mph 83 % 0.00 in 0 W/m2
00:40 48.7 °F 43.8 °F 30.41 in WNW 12.0 mph 19.0 mph 83 % 0.00 in 0 W/m2
00:45 48.7 °F 43.8 °F 30.41 in WNW 9.0 mph 15.0 mph 83 % 0.00 in 0 W/m2
00:50 48.7 °F 43.8 °F 30.40 in WNW 9.0 mph 18.0 mph 83 % 0.00 in 0 W/m2
00:55 48.7 °F 44.1 °F 30.40 in WNW 10.0 mph 15.0 mph 84 % 0.00 in 0 W/m2
01:00 48.7 °F 44.1 °F 30.40 in WNW 16.0 mph 21.0 mph 84 % 0.00 in 0 W/m2
01:05 48.7 °F 44.1 °F 30.40 in WNW 13.0 mph 21.0 mph 84 % 0.00 in 0 W/m2
01:10 48.7 °F 44.1 °F 30.41 in WNW 11.0 mph 16.0 mph 84 % 0.00 in 0 W/m2
01:15 48.7 °F 44.1 °F 30.40 in WNW 14.0 mph 21.0 mph 84 % 0.00 in 0 W/m2
01:20 48.9 °F 44.6 °F 30.40 in WNW 14.0 mph 22.0 mph 85 % 0.00 in 0 W/m2
01:25 48.9 °F 44.6 °F 30.40 in WNW 13.0 mph 20.0 mph 85 % 0.00 in 0 W/m2
01:30 48.7 °F 44.4 °F 30.40 in WNW 11.0 mph 16.0 mph 85 % 0.00 in 0 W/m2
01:35 48.7 °F 44.4 °F 30.40 in WNW 13.0 mph 20.0 mph 85 % 0.00 in 0 W/m2
01:40 48.7 °F 44.4 °F 30.40 in WNW 15.0 mph 25.0 mph 85 % 0.00 in 0 W/m2
01:45 49.1 °F 44.8 °F 30.39 in WNW 16.0 mph 26.0 mph 85 % 0.00 in 0 W/m2
01:50 49.1 °F 44.8 °F 30.39 in WNW 14.0 mph 21.0 mph 85 % 0.00 in 0 W/m2
01:55 49.1 °F 44.8 °F 30.39 in West 13.0 mph 21.0 mph 85 % 0.00 in 0 W/m2
02:00 49.1 °F 44.8 °F 30.38 in WNW 13.0 mph 23.0 mph 85 % 0.00 in 0 W/m2
02:05 49.1 °F 44.8 °F 30.38 in WNW 15.0 mph 21.0 mph 85 % 0.00 in 0 W/m2
02:10 49.1 °F 44.8 °F 30.38 in West 15.0 mph 23.0 mph 85 % 0.00 in 0 W/m2
02:15 49.3 °F 45.0 °F 30.38 in West 14.0 mph 23.0 mph 85 % 0.00 in 0 W/m2
02:20 49.3 °F 45.0 °F 30.37 in West 14.0 mph 22.0 mph 85 % 0.00 in 0 W/m2
02:25 49.3 °F 45.0 °F 30.37 in West 14.0 mph 24.0 mph 85 % 0.00 in 0 W/m2
02:30 49.3 °F 44.6 °F 30.36 in West 13.0 mph 20.0 mph 84 % 0.00 in 0 W/m2
02:35 49.3 °F 45.0 °F 30.36 in WNW 13.0 mph 21.0 mph 85 % 0.00 in 0 W/m2
02:40 49.5 °F 44.8 °F 30.36 in WNW 15.0 mph 28.0 mph 84 % 0.00 in 0 W/m2
02:45 49.5 °F 44.8 °F 30.36 in WNW 15.0 mph 26.0 mph 84 % 0.00 in 0 W/m2
02:50 49.5 °F 44.8 °F 30.36 in WNW 13.0 mph 22.0 mph 84 % 0.00 in 0 W/m2
02:55 49.6 °F 45.0 °F 30.36 in WNW 15.0 mph 21.0 mph 84 % 0.00 in 0 W/m2
03:00 49.6 °F 45.0 °F 30.36 in WNW 10.0 mph 15.0 mph 84 % 0.00 in 0 W/m2
03:05 49.6 °F 45.0 °F 30.35 in West 10.0 mph 18.0 mph 84 % 0.00 in 0 W/m2
03:10 49.6 °F 45.0 °F 30.35 in WNW 12.0 mph 21.0 mph 84 % 0.00 in 0 W/m2
03:15 49.5 °F 44.8 °F 30.34 in WNW 11.0 mph 19.0 mph 84 % 0.00 in 0 W/m2
03:20 49.5 °F 44.8 °F 30.33 in WNW 17.0 mph 25.0 mph 84 % 0.00 in 0 W/m2
03:25 49.6 °F 45.0 °F 30.34 in WNW 17.0 mph 25.0 mph 84 % 0.00 in 0 W/m2
03:30 49.6 °F 44.7 °F 30.34 in WNW 14.0 mph 24.0 mph 83 % 0.00 in 0 W/m2
03:35 49.6 °F 44.7 °F 30.34 in WNW 14.0 mph 29.0 mph 83 % 0.00 in 0 W/m2
03:40 49.6 °F 44.7 °F 30.33 in West 11.0 mph 21.0 mph 83 % 0.00 in 0 W/m2
03:45 49.6 °F 45.0 °F 30.33 in West 10.0 mph 18.0 mph 84 % 0.00 in 0 W/m2
03:50 49.5 °F 44.8 °F 30.33 in WNW 9.0 mph 16.0 mph 84 % 0.00 in 0 W/m2
03:55 49.6 °F 45.0 °F 30.33 in WNW 12.0 mph 19.0 mph 84 % 0.00 in 0 W/m2
04:00 49.6 °F 45.0 °F 30.33 in WNW 15.0 mph 24.0 mph 84 % 0.00 in 0 W/m2
04:05 49.6 °F 44.7 °F 30.33 in WNW 9.0 mph 22.0 mph 83 % 0.00 in 0 W/m2
04:10 49.6 °F 45.0 °F 30.32 in WNW 9.0 mph 18.0 mph 84 % 0.00 in 0 W/m2
04:17 49.6 °F 45.0 °F 30.32 in NW 11.0 mph 16.0 mph 84 % 0.00 in 0 W/m2
04:21 49.6 °F 45.0 °F 30.32 in NW 9.0 mph 18.0 mph 84 % 0.00 in 0 W/m2
04:25 49.6 °F 45.0 °F 30.32 in NNW 5.0 mph 11.0 mph 84 % 0.00 in 0 W/m2
04:30 49.6 °F 44.7 °F 30.32 in NW 5.0 mph 10.0 mph 83 % 0.00 in 0 W/m2
04:35 49.6 °F 44.7 °F 30.32 in NW 6.0 mph 12.0 mph 83 % 0.00 in 0 W/m2
04:40 49.6 °F 44.7 °F 30.32 in NW 9.0 mph 16.0 mph 83 % 0.00 in 0 W/m2
04:45 49.6 °F 44.7 °F 30.32 in NW 8.0 mph 12.0 mph 83 % 0.00 in 0 W/m2
04:50 49.6 °F 44.4 °F 30.32 in NW 7.0 mph 11.0 mph 82 % 0.00 in 0 W/m2
04:55 49.6 °F 44.4 °F 30.31 in WNW 7.0 mph 11.0 mph 82 % 0.00 in 0 W/m2
05:00 49.5 °F 44.5 °F 30.31 in NW 7.0 mph 11.0 mph 83 % 0.00 in 0 W/m2
05:05 49.5 °F 44.5 °F 30.31 in NW 9.0 mph 16.0 mph 83 % 0.00 in 0 W/m2
05:10 49.6 °F 44.7 °F 30.30 in WNW 11.0 mph 18.0 mph 83 % 0.00 in 0 W/m2
05:15 49.6 °F 44.7 °F 30.31 in NW 12.0 mph 22.0 mph 83 % 0.00 in 0 W/m2
05:20 49.8 °F 44.9 °F 30.31 in NW 11.0 mph 16.0 mph 83 % 0.00 in 0 W/m2
05:25 49.8 °F 45.2 °F 30.30 in NW 12.0 mph 16.0 mph 84 % 0.00 in 0 W/m2
05:30 50.0 °F 45.7 °F 30.31 in NW 12.0 mph 20.0 mph 85 % 0.00 in 0 W/m2
05:35 50.2 °F 45.8 °F 30.31 in WNW 12.0 mph 18.0 mph 85 % 0.00 in 0 W/m2
05:40 50.2 °F 45.8 °F 30.31 in WNW 11.0 mph 19.0 mph 85 % 0.00 in 0 W/m2
05:45 50.4 °F 46.3 °F 30.31 in WNW 15.0 mph 21.0 mph 86 % 0.00 in 0 W/m2
05:50 50.5 °F 46.5 °F 30.30 in WNW 11.0 mph 18.0 mph 86 % 0.00 in 0 W/m2
05:55 50.5 °F 46.8 °F 30.30 in WNW 8.0 mph 13.0 mph 87 % 0.00 in 0 W/m2
06:00 50.5 °F 46.8 °F 30.30 in WNW 12.0 mph 20.0 mph 87 % 0.00 in 0 W/m2
06:05 50.5 °F 46.8 °F 30.30 in WNW 10.0 mph 20.0 mph 87 % 0.00 in 0 W/m2
06:10 50.5 °F 46.8 °F 30.29 in WNW 14.0 mph 23.0 mph 87 % 0.00 in 0 W/m2
06:15 50.5 °F 46.8 °F 30.29 in WNW 14.0 mph 26.0 mph 87 % 0.00 in 0 W/m2
06:20 50.7 °F 47.3 °F 30.28 in WNW 18.0 mph 27.0 mph 88 % 0.00 in 0 W/m2
06:26 50.7 °F 47.0 °F 30.28 in WNW 18.0 mph 26.0 mph 87 % 0.00 in 0 W/m2
06:31 50.7 °F 47.3 °F 30.27 in WNW 19.0 mph 30.0 mph 88 % 0.00 in 0 W/m2
06:36 50.7 °F 47.3 °F 30.27 in West 17.0 mph 28.0 mph 88 % 0.00 in 0 W/m2
06:41 50.9 °F 47.2 °F 30.27 in West 18.0 mph 26.0 mph 87 % 0.00 in 0 W/m2
06:46 51.1 °F 47.3 °F 30.27 in WNW 15.0 mph 23.0 mph 87 % 0.00 in 0 W/m2
06:51 51.1 °F 47.3 °F 30.27 in West 14.0 mph 25.0 mph 87 % 0.00 in 0 W/m2
06:56 51.1 °F 47.6 °F 30.26 in West 14.0 mph 22.0 mph 88 % 0.00 in 0 W/m2
07:01 51.1 °F 47.6 °F 30.26 in West 13.0 mph 20.0 mph 88 % 0.00 in 0 W/m2
07:06 50.9 °F 47.5 °F 30.26 in WNW 11.0 mph 20.0 mph 88 % 0.00 in 0 W/m2
07:11 50.9 °F 47.8 °F 30.26 in WNW 12.0 mph 25.0 mph 89 % 0.00 in 0 W/m2
07:16 50.9 °F 47.8 °F 30.26 in WNW 11.0 mph 21.0 mph 89 % 0.00 in 0 W/m2
07:21 50.7 °F 47.6 °F 30.26 in WNW 12.0 mph 20.0 mph 89 % 0.00 in 0 W/m2
07:26 50.7 °F 47.6 °F 30.26 in WNW 12.0 mph 22.0 mph 89 % 0.00 in 0 W/m2
07:31 50.7 °F 47.6 °F 30.26 in WNW 11.0 mph 20.0 mph 89 % 0.00 in 0 W/m2
07:36 50.7 °F 47.6 °F 30.25 in WNW 13.0 mph 26.0 mph 89 % 0.00 in 0 W/m2
07:41 50.7 °F 47.9 °F 30.25 in West 15.0 mph 24.0 mph 90 % 0.00 in 0 W/m2
07:46 50.9 °F 48.1 °F 30.26 in WNW 17.0 mph 28.0 mph 90 % 0.00 in 0 W/m2
07:51 50.9 °F 48.1 °F 30.26 in WNW 18.0 mph 30.0 mph 90 % 0.00 in 0 W/m2
07:56 51.1 °F 48.2 °F 30.26 in WNW 18.0 mph 25.0 mph 90 % 0.00 in 0 W/m2
08:01 51.1 °F 48.0 °F 30.26 in WNW 16.0 mph 22.0 mph 89 % 0.00 in 0 W/m2
08:06 51.3 °F 48.1 °F 30.26 in West 13.0 mph 23.0 mph 89 % 0.00 in 7 W/m2
08:11 51.3 °F 48.1 °F 30.26 in West 14.0 mph 22.0 mph 89 % 0.00 in 12 W/m2
08:16 51.3 °F 48.1 °F 30.26 in West 11.0 mph 16.0 mph 89 % 0.00 in 16 W/m2
08:21 51.4 °F 48.3 °F 30.26 in West 12.0 mph 23.0 mph 89 % 0.00 in 21 W/m2
08:26 51.4 °F 48.3 °F 30.26 in West 12.0 mph 19.0 mph 89 % 0.00 in 26 W/m2
08:31 51.4 °F 48.6 °F 30.26 in West 10.0 mph 14.0 mph 90 % 0.00 in 33 W/m2
08:36 51.6 °F 48.8 °F 30.25 in West 10.0 mph 18.0 mph 90 % 0.00 in 37 W/m2
08:41 51.8 °F 49.0 °F 30.26 in West 11.0 mph 18.0 mph 90 % 0.00 in 42 W/m2
08:46 52.2 °F 49.3 °F 30.25 in West 10.0 mph 15.0 mph 90 % 0.00 in 47 W/m2
08:51 52.3 °F 49.5 °F 30.25 in West 11.0 mph 19.0 mph 90 % 0.00 in 54 W/m2
08:56 52.3 °F 49.5 °F 30.25 in West 12.0 mph 22.0 mph 90 % 0.00 in 60 W/m2
09:01 52.5 °F 49.7 °F 30.25 in West 10.0 mph 16.0 mph 90 % 0.00 in 60 W/m2
09:06 52.9 °F 50.0 °F 30.25 in West 14.0 mph 21.0 mph 90 % 0.00 in 56 W/m2
09:11 52.9 °F 50.0 °F 30.26 in West 12.0 mph 21.0 mph 90 % 0.00 in 49 W/m2
09:16 53.1 °F 50.2 °F 30.25 in West 12.0 mph 18.0 mph 90 % 0.00 in 47 W/m2
09:22 53.2 °F 50.4 °F 30.25 in West 9.0 mph 15.0 mph 90 % 0.00 in 40 W/m2
09:27 53.4 °F 50.6 °F 30.25 in West 10.0 mph 16.0 mph 90 % 0.00 in 47 W/m2
09:32 53.8 °F 50.9 °F 30.24 in West 14.0 mph 23.0 mph 90 % 0.00 in 53 W/m2
09:37 54.1 °F 51.3 °F 30.24 in West 16.0 mph 25.0 mph 90 % 0.00 in 49 W/m2
09:42 54.7 °F 51.8 °F 30.24 in West 14.0 mph 21.0 mph 90 % 0.00 in 35 W/m2
09:47 54.9 °F 52.0 °F 30.23 in WNW 15.0 mph 24.0 mph 90 % 0.00 in 46 W/m2
09:52 54.9 °F 52.0 °F 30.23 in West 9.0 mph 20.0 mph 90 % 0.00 in 54 W/m2
09:57 54.9 °F 52.0 °F 30.23 in West 15.0 mph 27.0 mph 90 % 0.00 in 77 W/m2
10:02 55.0 °F 52.2 °F 30.22 in West 19.0 mph 28.0 mph 90 % 0.00 in 95 W/m2
10:07 55.4 °F 52.5 °F 30.23 in WNW 19.0 mph 30.0 mph 90 % 0.00 in 128 W/m2
10:12 55.6 °F 52.4 °F 30.23 in West 12.0 mph 19.0 mph 89 % 0.00 in 88 W/m2
10:17 55.6 °F 52.4 °F 30.22 in West 13.0 mph 19.0 mph 89 % 0.00 in 56 W/m2
10:22 55.8 °F 52.6 °F 30.22 in West 16.0 mph 24.0 mph 89 % 0.00 in 84 W/m2
10:27 55.8 °F 52.6 °F 30.22 in WNW 11.0 mph 20.0 mph 89 % 0.00 in 63 W/m2
10:32 55.9 °F 52.7 °F 30.22 in WNW 11.0 mph 21.0 mph 89 % 0.00 in 69 W/m2
10:37 55.9 °F 52.7 °F 30.21 in West 16.0 mph 25.0 mph 89 % 0.00 in 35 W/m2
10:42 55.9 °F 52.7 °F 30.21 in West 14.0 mph 22.0 mph 89 % 0.00 in 95 W/m2
10:47 55.9 °F 52.7 °F 30.20 in West 15.0 mph 26.0 mph 89 % 0.00 in 39 W/m2
10:52 56.1 °F 52.9 °F 30.21 in WNW 12.0 mph 18.0 mph 89 % 0.00 in 83 W/m2
10:57 56.1 °F 52.6 °F 30.21 in West 11.0 mph 19.0 mph 88 % 0.00 in 60 W/m2
11:02 56.1 °F 52.6 °F 30.21 in West 11.0 mph 20.0 mph 88 % 0.00 in 67 W/m2
11:07 56.1 °F 52.6 °F 30.20 in West 14.0 mph 24.0 mph 88 % 0.00 in 90 W/m2
11:12 56.3 °F 52.8 °F 30.19 in West 16.0 mph 27.0 mph 88 % 0.00 in 144 W/m2
11:17 56.5 °F 53.0 °F 30.20 in West 15.0 mph 22.0 mph 88 % 0.00 in 172 W/m2
11:22 56.7 °F 53.1 °F 30.19 in WNW 13.0 mph 22.0 mph 88 % 0.00 in 125 W/m2
11:27 56.8 °F 53.0 °F 30.19 in WNW 9.0 mph 14.0 mph 87 % 0.00 in 149 W/m2
11:32 56.8 °F 53.0 °F 30.19 in West 16.0 mph 26.0 mph 87 % 0.00 in 105 W/m2
11:37 57.0 °F 53.2 °F 30.19 in WNW 13.0 mph 22.0 mph 87 % 0.00 in 100 W/m2
11:42 57.0 °F 53.2 °F 30.19 in WNW 16.0 mph 25.0 mph 87 % 0.00 in 77 W/m2
11:47 56.8 °F 53.0 °F 30.19 in WNW 14.0 mph 24.0 mph 87 % 0.00 in 79 W/m2
11:52 56.8 °F 53.0 °F 30.19 in WNW 16.0 mph 24.0 mph 87 % 0.00 in 86 W/m2
11:57 56.8 °F 53.0 °F 30.19 in West 11.0 mph 21.0 mph 87 % 0.00 in 90 W/m2
12:02 56.8 °F 53.0 °F 30.19 in WNW 14.0 mph 25.0 mph 87 % 0.00 in 74 W/m2
12:07 56.8 °F 53.0 °F 30.18 in WNW 17.0 mph 27.0 mph 87 % 0.00 in 79 W/m2
12:12 56.7 °F 52.8 °F 30.19 in WNW 18.0 mph 31.0 mph 87 % 0.00 in 91 W/m2
12:18 56.7 °F 53.1 °F 30.18 in WNW 15.0 mph 25.0 mph 88 % 0.00 in 83 W/m2
12:23 56.7 °F 53.1 °F 30.18 in WNW 14.0 mph 23.0 mph 88 % 0.00 in 134 W/m2
12:28 56.7 °F 53.1 °F 30.18 in WNW 16.0 mph 27.0 mph 88 % 0.00 in 100 W/m2
12:33 56.7 °F 53.5 °F 30.17 in WNW 18.0 mph 31.0 mph 89 % 0.00 in 172 W/m2
12:38 56.8 °F 53.6 °F 30.17 in WNW 16.0 mph 25.0 mph 89 % 0.00 in 158 W/m2
12:43 56.8 °F 53.6 °F 30.17 in WNW 14.0 mph 25.0 mph 89 % 0.00 in 193 W/m2
12:48 56.8 °F 53.3 °F 30.17 in WNW 18.0 mph 29.0 mph 88 % 0.00 in 227 W/m2
12:53 57.0 °F 53.5 °F 30.18 in WNW 15.0 mph 21.0 mph 88 % 0.00 in 105 W/m2
12:58 57.0 °F 53.5 °F 30.17 in WNW 17.0 mph 24.0 mph 88 % 0.00 in 227 W/m2
13:03 57.4 °F 53.5 °F 30.17 in WNW 14.0 mph 23.0 mph 87 % 0.00 in 218 W/m2
13:08 57.4 °F 53.5 °F 30.17 in WNW 18.0 mph 25.0 mph 87 % 0.00 in 207 W/m2
13:13 57.7 °F 53.9 °F 30.16 in WNW 16.0 mph 21.0 mph 87 % 0.00 in 169 W/m2
13:18 57.9 °F 53.8 °F 30.16 in WNW 17.0 mph 26.0 mph 86 % 0.00 in 181 W/m2
13:23 58.1 °F 53.6 °F 30.16 in WNW 18.0 mph 27.0 mph 85 % 0.00 in 318 W/m2
13:28 58.1 °F 53.3 °F 30.15 in WNW 21.0 mph 30.0 mph 84 % 0.00 in 141 W/m2
13:33 57.9 °F 53.1 °F 30.14 in West 19.0 mph 26.0 mph 84 % 0.00 in 132 W/m2
13:39 57.7 °F 52.9 °F 30.14 in West 18.0 mph 28.0 mph 84 % 0.00 in 148 W/m2
13:44 57.7 °F 53.3 °F 30.14 in WNW 16.0 mph 23.0 mph 85 % 0.00 in 163 W/m2
13:49 57.7 °F 53.3 °F 30.14 in WNW 15.0 mph 25.0 mph 85 % 0.00 in 193 W/m2
13:54 57.9 °F 53.1 °F 30.13 in WNW 16.0 mph 31.0 mph 84 % 0.00 in 204 W/m2
13:59 58.1 °F 53.3 °F 30.14 in WNW 15.0 mph 24.0 mph 84 % 0.00 in 183 W/m2
14:04 58.1 °F 53.3 °F 30.13 in WNW 15.0 mph 23.0 mph 84 % 0.00 in 265 W/m2
14:09 58.1 °F 53.3 °F 30.12 in WNW 20.0 mph 29.0 mph 84 % 0.00 in 174 W/m2
14:14 58.1 °F 53.3 °F 30.12 in WNW 19.0 mph 28.0 mph 84 % 0.00 in 167 W/m2
14:19 58.1 °F 53.3 °F 30.12 in West 19.0 mph 32.0 mph 84 % 0.00 in 167 W/m2
14:24 58.1 °F 53.3 °F 30.12 in West 14.0 mph 26.0 mph 84 % 0.00 in 158 W/m2
14:29 58.1 °F 53.3 °F 30.12 in West 15.0 mph 25.0 mph 84 % 0.00 in 139 W/m2
14:34 58.1 °F 53.3 °F 30.12 in WNW 17.0 mph 25.0 mph 84 % 0.00 in 149 W/m2
14:39 58.1 °F 53.3 °F 30.12 in West 16.0 mph 25.0 mph 84 % 0.00 in 204 W/m2
14:44 58.3 °F 53.5 °F 30.12 in West 17.0 mph 28.0 mph 84 % 0.00 in 181 W/m2
14:49 58.3 °F 53.1 °F 30.12 in West 19.0 mph 26.0 mph 83 % 0.00 in 91 W/m2
14:54 58.1 °F 53.3 °F 30.12 in West 15.0 mph 23.0 mph 84 % 0.00 in 65 W/m2
14:59 57.9 °F 53.1 °F 30.12 in West 14.0 mph 27.0 mph 84 % 0.00 in 58 W/m2
15:04 57.7 °F 52.9 °F 30.11 in West 13.0 mph 24.0 mph 84 % 0.00 in 81 W/m2
15:09 57.7 °F 52.9 °F 30.11 in West 12.0 mph 20.0 mph 84 % 0.00 in 63 W/m2
15:14 57.7 °F 52.9 °F 30.10 in West 16.0 mph 27.0 mph 84 % 0.00 in 60 W/m2
15:19 57.7 °F 52.9 °F 30.10 in West 14.0 mph 25.0 mph 84 % 0.00 in 70 W/m2
15:24 57.7 °F 53.3 °F 30.10 in West 19.0 mph 29.0 mph 85 % 0.00 in 77 W/m2
15:29 57.7 °F 53.3 °F 30.09 in West 15.0 mph 25.0 mph 85 % 0.00 in 90 W/m2
15:34 57.7 °F 53.3 °F 30.09 in West 16.0 mph 27.0 mph 85 % 0.00 in 88 W/m2
15:39 57.7 °F 53.3 °F 30.09 in West 15.0 mph 28.0 mph 85 % 0.00 in 79 W/m2
15:45 57.7 °F 53.3 °F 30.09 in West 16.0 mph 24.0 mph 85 % 0.00 in 67 W/m2
15:50 57.7 °F 53.3 °F 30.09 in West 15.0 mph 26.0 mph 85 % 0.00 in 56 W/m2
15:55 57.7 °F 53.3 °F 30.09 in WNW 18.0 mph 28.0 mph 85 % 0.00 in 49 W/m2
16:00 57.6 °F 53.1 °F 30.09 in WNW 15.0 mph 25.0 mph 85 % 0.00 in 40 W/m2
16:05 57.6 °F 53.1 °F 30.09 in West 15.0 mph 26.0 mph 85 % 0.00 in 37 W/m2
16:10 57.6 °F 53.1 °F 30.09 in WNW 17.0 mph 28.0 mph 85 % 0.00 in 23 W/m2
16:15 57.6 °F 53.1 °F 30.09 in WNW 15.0 mph 26.0 mph 85 % 0.00 in 12 W/m2
16:20 57.6 °F 53.4 °F 30.09 in WNW 18.0 mph 31.0 mph 86 % 0.00 in 16 W/m2
16:25 57.4 °F 53.2 °F 30.09 in West 19.0 mph 29.0 mph 86 % 0.00 in 19 W/m2
16:30 57.4 °F 53.5 °F 30.09 in WNW 17.0 mph 28.0 mph 87 % 0.00 in 30 W/m2
16:35 57.2 °F 53.4 °F 30.09 in WNW 17.0 mph 26.0 mph 87 % 0.00 in 19 W/m2
16:40 57.2 °F 53.7 °F 30.09 in WNW 14.0 mph 23.0 mph 88 % 0.00 in 23 W/m2
16:45 57.2 °F 53.7 °F 30.09 in WNW 16.0 mph 29.0 mph 88 % 0.00 in 18 W/m2
16:50 57.4 °F 53.5 °F 30.09 in WNW 15.0 mph 28.0 mph 87 % 0.00 in 12 W/m2
16:55 57.4 °F 53.5 °F 30.09 in West 11.0 mph 25.0 mph 87 % 0.00 in 12 W/m2
17:00 57.4 °F 53.9 °F 30.09 in WNW 12.0 mph 23.0 mph 88 % 0.00 in 16 W/m2
17:05 57.2 °F 53.7 °F 30.08 in WNW 10.0 mph 15.0 mph 88 % 0.00 in 16 W/m2
17:10 57.2 °F 53.7 °F 30.08 in WNW 16.0 mph 27.0 mph 88 % 0.00 in 9 W/m2
17:15 57.4 °F 53.9 °F 30.08 in WNW 13.0 mph 22.0 mph 88 % 0.00 in 7 W/m2
17:20 57.4 °F 53.9 °F 30.08 in WNW 16.0 mph 24.0 mph 88 % 0.00 in 5 W/m2
17:25 57.4 °F 53.9 °F 30.08 in West 17.0 mph 28.0 mph 88 % 0.00 in 0 W/m2
17:30 57.4 °F 53.9 °F 30.08 in WNW 14.0 mph 23.0 mph 88 % 0.00 in 0 W/m2
17:35 57.4 °F 53.9 °F 30.08 in WNW 17.0 mph 27.0 mph 88 % 0.00 in 0 W/m2
17:40 57.6 °F 54.0 °F 30.08 in WNW 14.0 mph 23.0 mph 88 % 0.00 in 0 W/m2
17:45 57.4 °F 53.9 °F 30.07 in WNW 19.0 mph 30.0 mph 88 % 0.00 in 5 W/m2
17:50 57.4 °F 53.9 °F 30.08 in WNW 19.0 mph 30.0 mph 88 % 0.00 in 0 W/m2
17:55 57.4 °F 54.2 °F 30.07 in WNW 20.0 mph 28.0 mph 89 % 0.00 in 0 W/m2
18:00 57.4 °F 54.2 °F 30.08 in WNW 21.0 mph 33.0 mph 89 % 0.00 in 0 W/m2
18:01 57.4 °F 54.2 °F 30.07 in WNW 21.0 mph 33.0 mph 89 % 0.00 in 0 W/m2
18:06 57.4 °F 54.2 °F 30.07 in WNW 14.0 mph 23.0 mph 89 % 0.00 in 0 W/m2
18:11 57.2 °F 54.0 °F 30.07 in West 18.0 mph 28.0 mph 89 % 0.00 in 0 W/m2
18:16 57.0 °F 53.8 °F 30.06 in West 19.0 mph 30.0 mph 89 % 0.00 in 0 W/m2
18:21 57.0 °F 53.8 °F 30.06 in West 17.0 mph 30.0 mph 89 % 0.00 in 0 W/m2
18:26 57.0 °F 54.1 °F 30.06 in West 24.0 mph 31.0 mph 90 % 0.00 in 0 W/m2
18:31 57.0 °F 54.1 °F 30.05 in WNW 17.0 mph 32.0 mph 90 % 0.00 in 0 W/m2
18:36 56.8 °F 53.9 °F 30.05 in WNW 19.0 mph 29.0 mph 90 % 0.00 in 0 W/m2
18:41 56.8 °F 53.9 °F 30.05 in West 19.0 mph 26.0 mph 90 % 0.00 in 0 W/m2
18:46 56.8 °F 53.9 °F 30.06 in WNW 17.0 mph 28.0 mph 90 % 0.00 in 0 W/m2
18:51 56.8 °F 53.9 °F 30.05 in WNW 19.0 mph 27.0 mph 90 % 0.00 in 0 W/m2
18:56 56.8 °F 53.9 °F 30.06 in WNW 15.0 mph 25.0 mph 90 % 0.00 in 0 W/m2
19:01 56.8 °F 53.9 °F 30.05 in WNW 17.0 mph 31.0 mph 90 % 0.00 in 0 W/m2
19:06 56.8 °F 53.9 °F 30.05 in WNW 15.0 mph 25.0 mph 90 % 0.00 in 0 W/m2
19:11 56.8 °F 53.9 °F 30.05 in West 20.0 mph 33.0 mph 90 % 0.00 in 0 W/m2
19:16 56.8 °F 54.2 °F 30.05 in WNW 22.0 mph 32.0 mph 91 % 0.00 in 0 W/m2
19:21 56.8 °F 54.2 °F 30.05 in West 24.0 mph 39.0 mph 91 % 0.00 in 0 W/m2
19:26 56.7 °F 54.1 °F 30.05 in WNW 22.0 mph 33.0 mph 91 % 0.00 in 0 W/m2
19:31 56.8 °F 54.2 °F 30.05 in WNW 18.0 mph 30.0 mph 91 % 0.00 in 0 W/m2
19:36 56.8 °F 54.2 °F 30.05 in WNW 21.0 mph 32.0 mph 91 % 0.00 in 0 W/m2
19:41 56.8 °F 53.9 °F 30.05 in WNW 24.0 mph 35.0 mph 90 % 0.00 in 0 W/m2
19:46 56.8 °F 53.9 °F 30.05 in WNW 20.0 mph 32.0 mph 90 % 0.00 in 0 W/m2
19:51 56.8 °F 53.9 °F 30.06 in WNW 27.0 mph 37.0 mph 90 % 0.00 in 0 W/m2
19:56 56.7 °F 53.8 °F 30.06 in WNW 19.0 mph 29.0 mph 90 % 0.00 in 0 W/m2
20:01 56.7 °F 53.8 °F 30.05 in WNW 20.0 mph 32.0 mph 90 % 0.00 in 0 W/m2
20:06 56.7 °F 53.8 °F 30.06 in WNW 18.0 mph 31.0 mph 90 % 0.00 in 0 W/m2
20:11 56.7 °F 54.1 °F 30.06 in WNW 20.0 mph 29.0 mph 91 % 0.00 in 0 W/m2
20:16 56.7 °F 54.1 °F 30.05 in WNW 21.0 mph 31.0 mph 91 % 0.00 in 0 W/m2
20:21 56.7 °F 54.1 °F 30.06 in WNW 21.0 mph 30.0 mph 91 % 0.00 in 0 W/m2
20:26 56.5 °F 53.9 °F 30.05 in WNW 23.0 mph 33.0 mph 91 % 0.00 in 0 W/m2
20:31 56.5 °F 53.9 °F 30.05 in WNW 20.0 mph 32.0 mph 91 % 0.00 in 0 W/m2
20:36 56.5 °F 53.9 °F 30.05 in WNW 20.0 mph 32.0 mph 91 % 0.00 in 0 W/m2
20:41 56.5 °F 53.9 °F 30.05 in WNW 22.0 mph 32.0 mph 91 % 0.00 in 0 W/m2
20:46 56.5 °F 53.9 °F 30.04 in WNW 18.0 mph 25.0 mph 91 % 0.00 in 0 W/m2
20:52 56.5 °F 53.9 °F 30.04 in West 18.0 mph 29.0 mph 91 % 0.00 in 0 W/m2
20:57 56.5 °F 53.6 °F 30.03 in WNW 20.0 mph 31.0 mph 90 % 0.00 in 0 W/m2
21:02 56.5 °F 53.6 °F 30.03 in West 18.0 mph 25.0 mph 90 % 0.00 in 0 W/m2
21:07 56.7 °F 53.8 °F 30.03 in West 20.0 mph 28.0 mph 90 % 0.00 in 0 W/m2
21:12 56.7 °F 53.8 °F 30.03 in West 19.0 mph 26.0 mph 90 % 0.00 in 0 W/m2
21:17 56.7 °F 53.8 °F 30.03 in WNW 19.0 mph 30.0 mph 90 % 0.00 in 0 W/m2
21:22 56.7 °F 53.8 °F 30.03 in WNW 18.0 mph 28.0 mph 90 % 0.00 in 0 W/m2
21:27 56.7 °F 53.5 °F 30.03 in WNW 19.0 mph 28.0 mph 89 % 0.00 in 0 W/m2
21:32 56.7 °F 53.5 °F 30.03 in WNW 19.0 mph 27.0 mph 89 % 0.00 in 0 W/m2
21:37 56.7 °F 53.5 °F 30.03 in West 20.0 mph 31.0 mph 89 % 0.00 in 0 W/m2
21:42 56.7 °F 53.8 °F 30.03 in WNW 16.0 mph 25.0 mph 90 % 0.00 in 0 W/m2
21:47 56.5 °F 53.6 °F 30.03 in WNW 18.0 mph 25.0 mph 90 % 0.00 in 0 W/m2
21:52 56.5 °F 53.6 °F 30.02 in WNW 18.0 mph 34.0 mph 90 % 0.00 in 0 W/m2
21:57 56.5 °F 53.6 °F 30.02 in West 22.0 mph 36.0 mph 90 % 0.00 in 0 W/m2
22:02 56.3 °F 53.4 °F 30.02 in West 18.0 mph 29.0 mph 90 % 0.00 in 0 W/m2
22:07 56.1 °F 53.2 °F 30.02 in West 15.0 mph 26.0 mph 90 % 0.00 in 0 W/m2
22:12 56.1 °F 53.2 °F 30.02 in West 18.0 mph 30.0 mph 90 % 0.00 in 0 W/m2
22:17 56.1 °F 53.2 °F 30.02 in WNW 16.0 mph 27.0 mph 90 % 0.00 in 0 W/m2
22:22 56.1 °F 53.2 °F 30.02 in West 12.0 mph 22.0 mph 90 % 0.00 in 0 W/m2
22:27 56.1 °F 53.2 °F 30.01 in WNW 18.0 mph 31.0 mph 90 % 0.00 in 0 W/m2
22:32 56.1 °F 52.9 °F 30.01 in West 14.0 mph 24.0 mph 89 % 0.00 in 0 W/m2
22:34 56.1 °F 52.9 °F 30.00 in West 15.0 mph 23.0 mph 89 % 0.00 in 0 W/m2
22:39 56.3 °F 53.1 °F 30.00 in West 20.0 mph 32.0 mph 89 % 0.00 in 0 W/m2
22:44 56.5 °F 53.3 °F 30.00 in WNW 16.0 mph 29.0 mph 89 % 0.00 in 0 W/m2
22:49 56.5 °F 53.3 °F 30.00 in WNW 19.0 mph 31.0 mph 89 % 0.00 in 0 W/m2
22:54 56.7 °F 53.5 °F 30.00 in West 16.0 mph 30.0 mph 89 % 0.00 in 0 W/m2
22:59 56.8 °F 53.6 °F 30.00 in West 18.0 mph 29.0 mph 89 % 0.00 in 0 W/m2
23:04 56.7 °F 53.5 °F 30.00 in West 15.0 mph 23.0 mph 89 % 0.00 in 0 W/m2
23:09 56.7 °F 53.5 °F 30.01 in WNW 15.0 mph 24.0 mph 89 % 0.00 in 0 W/m2
23:14 56.7 °F 53.5 °F 30.01 in WNW 13.0 mph 24.0 mph 89 % 0.00 in 0 W/m2
23:19 56.7 °F 53.5 °F 30.00 in West 17.0 mph 27.0 mph 89 % 0.00 in 0 W/m2
23:24 56.7 °F 53.5 °F 30.00 in West 20.0 mph 32.0 mph 89 % 0.00 in 0 W/m2
23:29 56.7 °F 53.5 °F 30.00 in West 17.0 mph 28.0 mph 89 % 0.00 in 0 W/m2
23:34 56.7 °F 53.5 °F 30.00 in West 19.0 mph 29.0 mph 89 % 0.00 in 0 W/m2
23:39 56.8 °F 53.6 °F 30.00 in West 15.0 mph 25.0 mph 89 % 0.00 in 0 W/m2
23:44 56.8 °F 53.6 °F 30.00 in WNW 18.0 mph 34.0 mph 89 % 0.00 in 0 W/m2
23:49 57.0 °F 53.8 °F 30.00 in WNW 15.0 mph 24.0 mph 89 % 0.00 in 0 W/m2
23:54 57.0 °F 53.8 °F 29.99 in WNW 17.0 mph 29.0 mph 89 % 0.00 in 0 W/m2
23:59 57.0 °F 53.5 °F 29.99 in WNW 16.0 mph 26.0 mph 88 % 0.00 in 0 W/m2
Delerius-Weather
Compliments of Weather Underground - 2.25 mb

Data updates at regular intervals.